Time;durP1;ratioP1;P1;durP2;ratioP2;P2;SDS_P1;SDS_P2;PMS_P1;PMS_P2;Temp;Humidity;BMP_temperature;BMP_pressure;BME280_temperature;BME280_humidity;BME280_pressure;Samples;Min_cycle;Max_cycle;Signal;HPM_P1;HPM_P2
2022/09/10 00:00:39;;;;;;;5.72;1.80;;;;;;;;;;4787471;29;20037;-64
2022/09/10 00:03:06;;;;;;;7.50;2.17;;;;;;;;;;4787358;29;20032;-64
2022/09/10 00:05:58;;;;;;;6.50;2.15;;;;;;;;;;4786727;29;20031;-64
2022/09/10 00:08:24;;;;;;;7.13;1.88;;;;;;;;;;4786729;29;20517;-64
2022/09/10 00:10:51;;;;;;;10.77;2.58;;;;;;;;;;4786956;30;20043;-64
2022/09/10 00:13:19;;;;;;;9.32;2.00;;;;;;;;;;4786773;30;20061;-64
2022/09/10 00:15:47;;;;;;;9.00;2.70;;;;;;;;;;4786736;30;20047;-64
2022/09/10 00:18:14;;;;;;;7.45;2.08;;;;;;;;;;4787049;29;20027;-64
2022/09/10 00:20:51;;;;;;;5.97;1.83;;;;;;;;;;4789900;29;20078;-65
2022/09/10 00:23:18;;;;;;;10.50;2.25;;;;;;;;;;4789699;30;20439;-64
2022/09/10 00:25:45;;;;;;;6.28;2.13;;;;;;;;;;4790661;29;20039;-65
2022/09/10 00:28:11;;;;;;;9.30;2.45;;;;;;;;;;4789311;30;20062;-64
2022/09/10 00:30:41;;;;;;;7.63;2.35;;;;;;;;;;4790647;30;20084;-64
2022/09/10 00:33:08;;;;;;;5.22;2.08;;;;;;;;;;4790617;30;20489;-64
2022/09/10 00:35:35;;;;;;;9.07;1.92;;;;;;;;;;4790221;29;20035;-65
2022/09/10 00:38:01;;;;;;;8.25;2.00;;;;;;;;;;4790637;29;20045;-64
2022/09/10 00:40:28;;;;;;;6.72;2.00;;;;;;;;;;4790700;30;20032;-65
2022/09/10 00:42:54;;;;;;;6.40;1.95;;;;;;;;;;4790142;30;20030;-65
2022/09/10 00:45:23;;;;;;;10.65;1.88;;;;;;;;;;4790265;30;20031;-64
2022/09/10 00:47:52;;;;;;;6.47;1.80;;;;;;;;;;4790317;30;20035;-64
2022/09/10 00:50:23;;;;;;;8.52;2.00;;;;;;;;;;4790365;29;20032;-64
2022/09/10 00:52:51;;;;;;;8.23;2.05;;;;;;;;;;4790187;30;20643;-64
2022/09/10 00:55:18;;;;;;;11.75;1.92;;;;;;;;;;4789734;30;20043;-64
2022/09/10 00:57:46;;;;;;;6.72;2.30;;;;;;;;;;4790192;30;20093;-64
2022/09/10 01:00:13;;;;;;;11.00;2.25;;;;;;;;;;4790238;30;20041;-64
2022/09/10 01:02:39;;;;;;;8.25;1.98;;;;;;;;;;4790080;30;20515;-64
2022/09/10 01:05:08;;;;;;;9.80;1.83;;;;;;;;;;4789788;29;20039;-65
2022/09/10 01:07:35;;;;;;;8.88;2.10;;;;;;;;;;4788605;29;20405;-64
2022/09/10 01:10:27;;;;;;;6.25;1.90;;;;;;;;;;4789614;30;20027;-64
2022/09/10 01:12:54;;;;;;;4.80;1.80;;;;;;;;;;4789623;30;20059;-64
2022/09/10 01:15:39;;;;;;;5.38;1.80;;;;;;;;;;4789737;30;20047;-64
2022/09/10 01:18:11;;;;;;;5.07;1.70;;;;;;;;;;4790074;30;20092;-64
2022/09/10 01:20:50;;;;;;;5.43;1.70;;;;;;;;;;4789789;30;20033;-64
2022/09/10 01:23:38;;;;;;;11.07;2.00;;;;;;;;;;4789775;29;20035;-64
2022/09/10 01:26:13;;;;;;;12.50;2.25;;;;;;;;;;4789616;30;20076;-64
2022/09/10 01:28:48;;;;;;;5.10;1.85;;;;;;;;;;4789929;30;20308;-64
2022/09/10 01:31:20;;;;;;;2.97;1.75;;;;;;;;;;4788751;29;20398;-65
2022/09/10 01:33:54;;;;;;;4.05;1.95;;;;;;;;;;4789547;29;20035;-64
2022/09/10 01:36:23;;;;;;;8.05;1.92;;;;;;;;;;4788409;29;20033;-64
2022/09/10 01:38:50;;;;;;;5.25;1.83;;;;;;;;;;4789115;30;20507;-64
2022/09/10 01:41:17;;;;;;;5.15;1.50;;;;;;;;;;4789451;29;20039;-64
2022/09/10 01:43:43;;;;;;;8.95;2.08;;;;;;;;;;4789615;30;20031;-64
2022/09/10 01:46:18;;;;;;;5.93;2.08;;;;;;;;;;4789319;30;20027;-64
2022/09/10 01:48:44;;;;;;;8.15;1.95;;;;;;;;;;4789648;30;20039;-64
2022/09/10 01:51:14;;;;;;;5.80;1.85;;;;;;;;;;4789254;29;20031;-64
2022/09/10 01:53:43;;;;;;;11.13;2.28;;;;;;;;;;4788762;29;20037;-65
2022/09/10 01:56:18;;;;;;;11.65;2.47;;;;;;;;;;4789212;30;20033;-64
2022/09/10 01:58:44;;;;;;;7.22;1.80;;;;;;;;;;4789222;30;20388;-64
2022/09/10 02:01:16;;;;;;;8.98;2.08;;;;;;;;;;4789023;30;20031;-64
2022/09/10 02:03:43;;;;;;;5.03;1.95;;;;;;;;;;4789046;29;20034;-64
2022/09/10 02:06:13;;;;;;;7.53;2.05;;;;;;;;;;4788905;29;20043;-64
2022/09/10 02:08:41;;;;;;;9.15;2.15;;;;;;;;;;4788617;30;20027;-64
2022/09/10 02:11:10;;;;;;;8.48;1.83;;;;;;;;;;4787950;30;20055;-64
2022/09/10 02:13:37;;;;;;;7.63;1.90;;;;;;;;;;4788932;30;20031;-64
2022/09/10 02:16:05;;;;;;;4.47;1.60;;;;;;;;;;4789055;30;20051;-64
2022/09/10 02:18:32;;;;;;;12.93;1.90;;;;;;;;;;4788133;29;20035;-64
2022/09/10 02:21:01;;;;;;;7.30;1.90;;;;;;;;;;4788629;30;20041;-65
2022/09/10 02:23:30;;;;;;;8.65;1.95;;;;;;;;;;4788694;30;20027;-64
2022/09/10 02:25:57;;;;;;;7.50;1.88;;;;;;;;;;4788661;29;20455;-64
2022/09/10 02:28:23;;;;;;;8.75;1.95;;;;;;;;;;4788675;30;20028;-64
2022/09/10 02:30:49;;;;;;;5.60;1.60;;;;;;;;;;4788527;30;20027;-64
2022/09/10 02:33:17;;;;;;;4.80;1.63;;;;;;;;;;4788660;30;20027;-64
2022/09/10 02:35:44;;;;;;;6.93;2.10;;;;;;;;;;4788437;29;20047;-64
2022/09/10 02:38:10;;;;;;;5.55;1.88;;;;;;;;;;4788321;30;20037;-64
2022/09/10 02:40:38;;;;;;;7.28;1.90;;;;;;;;;;4788448;30;20393;-64
2022/09/10 02:43:04;;;;;;;7.82;2.25;;;;;;;;;;4788176;29;20490;-64
2022/09/10 02:45:31;;;;;;;5.63;1.75;;;;;;;;;;4788241;30;20027;-64
2022/09/10 02:47:57;;;;;;;5.32;1.80;;;;;;;;;;4788422;30;20033;-65
2022/09/10 02:50:24;;;;;;;6.47;2.00;;;;;;;;;;4788419;30;20031;-64
2022/09/10 02:52:50;;;;;;;10.70;1.90;;;;;;;;;;4787997;30;20088;-64
2022/09/10 02:55:17;;;;;;;4.85;2.10;;;;;;;;;;4788044;29;20413;-64
2022/09/10 02:57:44;;;;;;;6.93;1.80;;;;;;;;;;4788218;29;20043;-64
2022/09/10 03:00:10;;;;;;;9.70;2.08;;;;;;;;;;4788075;29;20505;-64
2022/09/10 03:02:37;;;;;;;6.75;2.05;;;;;;;;;;4788019;30;20033;-64
2022/09/10 03:05:03;;;;;;;5.38;1.73;;;;;;;;;;4787907;29;20031;-64
2022/09/10 03:07:30;;;;;;;4.43;2.35;;;;;;;;;;4786549;29;20416;-64
2022/09/10 03:09:56;;;;;;;5.72;1.60;;;;;;;;;;4788219;30;20039;-64
2022/09/10 03:12:23;;;;;;;5.63;1.85;;;;;;;;;;4787882;30;20055;-64
2022/09/10 03:14:49;;;;;;;3.83;1.73;;;;;;;;;;4787739;30;20081;-65
2022/09/10 03:17:15;;;;;;;7.32;1.65;;;;;;;;;;4787743;29;20039;-65
2022/09/10 03:19:42;;;;;;;7.30;1.60;;;;;;;;;;4788018;30;20043;-65
2022/09/10 03:22:10;;;;;;;11.27;1.98;;;;;;;;;;4787653;30;20054;-64
2022/09/10 03:24:36;;;;;;;5.15;1.65;;;;;;;;;;4787680;30;20074;-64
2022/09/10 03:27:02;;;;;;;10.23;1.65;;;;;;;;;;4787605;30;20027;-64
2022/09/10 03:29:29;;;;;;;6.90;1.70;;;;;;;;;;4787757;29;20042;-65
2022/09/10 03:31:55;;;;;;;8.50;2.10;;;;;;;;;;4787623;30;20035;-64
2022/09/10 03:34:22;;;;;;;6.95;1.65;;;;;;;;;;4787357;29;20051;-64
2022/09/10 03:36:50;;;;;;;5.75;1.80;;;;;;;;;;4787248;30;20039;-64
2022/09/10 03:39:17;;;;;;;7.03;1.65;;;;;;;;;;4787521;30;20409;-64
2022/09/10 03:41:47;;;;;;;5.97;1.60;;;;;;;;;;4787561;30;20039;-64
2022/09/10 03:44:13;;;;;;;3.75;1.73;;;;;;;;;;4787591;30;20031;-64
2022/09/10 03:46:40;;;;;;;5.07;1.52;;;;;;;;;;4787716;30;20023;-65
2022/09/10 03:49:08;;;;;;;4.68;1.20;;;;;;;;;;4787561;30;20027;-64
2022/09/10 03:51:34;;;;;;;4.88;1.65;;;;;;;;;;4787042;29;20038;-65
2022/09/10 03:54:01;;;;;;;5.60;1.70;;;;;;;;;;4787034;29;20039;-64
2022/09/10 03:56:27;;;;;;;9.50;1.70;;;;;;;;;;4787182;30;20027;-65
2022/09/10 03:58:54;;;;;;;7.28;1.27;;;;;;;;;;4787134;30;20027;-64
2022/09/10 04:01:20;;;;;;;6.07;1.60;;;;;;;;;;4787253;30;20035;-64
2022/09/10 04:03:46;;;;;;;13.07;1.70;;;;;;;;;;4787229;30;20080;-63
2022/09/10 04:06:14;;;;;;;5.22;1.80;;;;;;;;;;4786866;29;20042;-65
2022/09/10 04:08:42;;;;;;;7.25;1.80;;;;;;;;;;4787322;29;20039;-64
2022/09/10 04:11:09;;;;;;;5.60;1.52;;;;;;;;;;4787156;29;20051;-64
2022/09/10 04:13:35;;;;;;;7.45;1.58;;;;;;;;;;4787006;30;20028;-65
2022/09/10 04:16:01;;;;;;;3.35;1.40;;;;;;;;;;4787030;30;20405;-64
2022/09/10 04:18:28;;;;;;;7.30;1.58;;;;;;;;;;4786455;30;20034;-64
2022/09/10 04:20:57;;;;;;;5.93;1.90;;;;;;;;;;4787104;30;20034;-64
2022/09/10 04:23:24;;;;;;;9.60;2.03;;;;;;;;;;4787011;30;20447;-64
2022/09/10 04:25:51;;;;;;;7.07;1.42;;;;;;;;;;4786811;29;20031;-64
2022/09/10 04:28:17;;;;;;;5.53;1.58;;;;;;;;;;4786973;30;20130;-64
2022/09/10 04:30:44;;;;;;;3.65;1.40;;;;;;;;;;4786803;30;20031;-65
2022/09/10 04:33:10;;;;;;;5.78;1.95;;;;;;;;;;4786790;30;20104;-64
2022/09/10 04:35:38;;;;;;;11.05;2.20;;;;;;;;;;4786693;30;20065;-64
2022/09/10 04:38:05;;;;;;;6.82;1.50;;;;;;;;;;4786720;29;20032;-65
2022/09/10 04:40:31;;;;;;;9.38;1.42;;;;;;;;;;4786819;30;20037;-64
2022/09/10 04:42:57;;;;;;;8.43;1.67;;;;;;;;;;4786716;29;20032;-64
2022/09/10 04:45:24;;;;;;;8.50;1.73;;;;;;;;;;4786758;30;20031;-64
2022/09/10 04:47:51;;;;;;;5.75;1.50;;;;;;;;;;4786642;30;20034;-64
2022/09/10 04:50:18;;;;;;;7.13;1.60;;;;;;;;;;4786786;30;20033;-64
2022/09/10 04:52:44;;;;;;;5.68;1.60;;;;;;;;;;4786724;30;20099;-64
2022/09/10 04:55:11;;;;;;;5.72;1.42;;;;;;;;;;4786587;30;20045;-64
2022/09/10 04:57:37;;;;;;;4.43;1.40;;;;;;;;;;4786567;30;20390;-65
2022/09/10 05:00:06;;;;;;;5.10;1.60;;;;;;;;;;4786717;30;20035;-64
2022/09/10 05:02:33;;;;;;;5.20;1.60;;;;;;;;;;4786530;30;20083;-64
2022/09/10 05:04:59;;;;;;;8.18;1.67;;;;;;;;;;4786576;29;20043;-64
2022/09/10 05:07:26;;;;;;;5.50;1.33;;;;;;;;;;4789070;29;20482;-64
2022/09/10 05:09:52;;;;;;;7.50;1.73;;;;;;;;;;4790244;30;20047;-64
2022/09/10 05:12:18;;;;;;;7.55;1.80;;;;;;;;;;4789770;30;20051;-64
2022/09/10 05:14:45;;;;;;;4.70;1.75;;;;;;;;;;4789827;29;20416;-64
2022/09/10 05:17:11;;;;;;;8.57;1.65;;;;;;;;;;4789482;29;20041;-64
2022/09/10 05:19:37;;;;;;;4.70;1.50;;;;;;;;;;4789955;30;20035;-64
2022/09/10 05:22:03;;;;;;;5.20;1.63;;;;;;;;;;4789855;29;20038;-64
2022/09/10 05:24:33;;;;;;;5.10;1.38;;;;;;;;;;4789855;30;20038;-64
2022/09/10 05:26:59;;;;;;;6.82;1.50;;;;;;;;;;4789976;30;20034;-64
2022/09/10 05:29:26;;;;;;;4.90;1.33;;;;;;;;;;4789696;30;20038;-64
2022/09/10 05:31:52;;;;;;;9.93;1.67;;;;;;;;;;4789137;30;20091;-64
2022/09/10 05:34:19;;;;;;;5.10;1.52;;;;;;;;;;4789631;29;20045;-64
2022/09/10 05:36:45;;;;;;;6.90;1.85;;;;;;;;;;4789786;30;20038;-64
2022/09/10 05:39:14;;;;;;;4.50;1.50;;;;;;;;;;4789278;30;20035;-64
2022/09/10 05:41:42;;;;;;;4.60;1.85;;;;;;;;;;4789357;30;20035;-64
2022/09/10 05:44:08;;;;;;;5.55;1.50;;;;;;;;;;4789572;30;20027;-64
2022/09/10 05:46:34;;;;;;;4.80;1.40;;;;;;;;;;4788615;29;20030;-64
2022/09/10 05:49:01;;;;;;;5.28;1.50;;;;;;;;;;4789507;30;20079;-64
2022/09/10 05:51:29;;;;;;;2.25;1.30;;;;;;;;;;4789286;29;20035;-64
2022/09/10 05:54:01;;;;;;;3.53;1.20;;;;;;;;;;4789102;30;20031;-64
2022/09/10 05:56:28;;;;;;;4.47;1.63;;;;;;;;;;4789227;29;20396;-64
2022/09/10 05:58:54;;;;;;;4.57;1.80;;;;;;;;;;4788958;30;20417;-64
2022/09/10 06:01:20;;;;;;;3.63;1.25;;;;;;;;;;4788807;30;20031;-63
2022/09/10 06:03:47;;;;;;;3.10;1.20;;;;;;;;;;4788983;29;20065;-64
2022/09/10 06:06:14;;;;;;;3.33;1.55;;;;;;;;;;4788799;29;20046;-64
2022/09/10 06:09:06;;;;;;;3.95;1.42;;;;;;;;;;4751125;30;20056;-64
2022/09/10 06:11:33;;;;;;;3.65;1.48;;;;;;;;;;4750797;30;20063;-64
2022/09/10 06:13:59;;;;;;;3.10;1.48;;;;;;;;;;4751327;30;20059;-64
2022/09/10 06:16:26;;;;;;;4.57;1.88;;;;;;;;;;4750915;30;20526;-64
2022/09/10 06:18:53;;;;;;;6.25;1.65;;;;;;;;;;4750501;30;20028;-64
2022/09/10 06:21:19;;;;;;;5.28;1.40;;;;;;;;;;4751117;30;20517;-65
2022/09/10 06:23:46;;;;;;;3.72;1.50;;;;;;;;;;4750840;30;20043;-64
2022/09/10 06:26:14;;;;;;;4.78;1.63;;;;;;;;;;4750885;30;20036;-64
2022/09/10 06:28:40;;;;;;;3.53;1.73;;;;;;;;;;4751009;30;20028;-64
2022/09/10 06:31:07;;;;;;;2.53;1.40;;;;;;;;;;4750639;30;20048;-64
2022/09/10 06:33:34;;;;;;;7.18;1.75;;;;;;;;;;4750687;30;20044;-65
2022/09/10 06:36:02;;;;;;;3.00;1.50;;;;;;;;;;4750741;30;20510;-64
2022/09/10 06:38:29;;;;;;;7.22;1.55;;;;;;;;;;4750601;30;20503;-64
2022/09/10 06:40:58;;;;;;;4.22;1.50;;;;;;;;;;4750762;30;20036;-64
2022/09/10 06:43:27;;;;;;;5.78;1.38;;;;;;;;;;4750511;30;20044;-64
2022/09/10 06:45:54;;;;;;;2.50;1.45;;;;;;;;;;4769646;30;20091;-64
2022/09/10 06:48:21;;;;;;;5.05;1.60;;;;;;;;;;4788500;30;20042;-65
2022/09/10 06:50:52;;;;;;;7.20;2.08;;;;;;;;;;4788459;30;20027;-64
2022/09/10 06:53:20;;;;;;;9.45;1.55;;;;;;;;;;4788375;30;20504;-65
2022/09/10 06:55:50;;;;;;;3.92;1.48;;;;;;;;;;4788030;30;20515;-64
2022/09/10 06:58:18;;;;;;;6.53;1.63;;;;;;;;;;4787747;29;20031;-64
2022/09/10 07:00:46;;;;;;;4.45;1.38;;;;;;;;;;4788384;30;20031;-64
2022/09/10 07:03:13;;;;;;;4.95;1.40;;;;;;;;;;4788268;30;20034;-65
2022/09/10 07:05:39;;;;;;;5.30;1.50;;;;;;;;;;4787698;29;20030;-64
2022/09/10 07:08:06;;;;;;;3.45;0.90;;;;;;;;;;4788076;30;20031;-65
2022/09/10 07:10:32;;;;;;;9.95;1.30;;;;;;;;;;4787883;30;20438;-64
2022/09/10 07:13:01;;;;;;;5.22;1.92;;;;;;;;;;4787590;30;20031;-65
2022/09/10 07:15:28;;;;;;;3.53;1.50;;;;;;;;;;4787807;30;20043;-64
2022/09/10 07:17:54;;;;;;;6.80;1.20;;;;;;;;;;4787885;30;20035;-64
2022/09/10 07:20:22;;;;;;;2.30;1.30;;;;;;;;;;4787756;29;20493;-64
2022/09/10 07:22:51;;;;;;;5.75;1.25;;;;;;;;;;4787769;30;20038;-65
2022/09/10 07:25:18;;;;;;;4.97;1.30;;;;;;;;;;4787749;29;20032;-64
2022/09/10 07:27:45;;;;;;;5.45;1.40;;;;;;;;;;4787582;30;20038;-64
2022/09/10 07:30:12;;;;;;;5.10;1.40;;;;;;;;;;4786956;29;20043;-64
2022/09/10 07:32:39;;;;;;;3.70;1.13;;;;;;;;;;4787522;30;20032;-65
2022/09/10 07:35:06;;;;;;;6.00;1.25;;;;;;;;;;4786470;30;20048;-65
2022/09/10 07:37:33;;;;;;;2.83;1.10;;;;;;;;;;4787263;30;20393;-65
2022/09/10 07:39:59;;;;;;;6.47;1.35;;;;;;;;;;4787673;30;20042;-64
2022/09/10 07:42:26;;;;;;;5.25;1.10;;;;;;;;;;4787197;30;20036;-64
2022/09/10 07:44:52;;;;;;;5.18;1.15;;;;;;;;;;4787206;30;20039;-64
2022/09/10 07:47:19;;;;;;;2.30;0.90;;;;;;;;;;4787703;29;20042;-65
2022/09/10 07:49:46;;;;;;;3.63;1.30;;;;;;;;;;4787292;30;20405;-65
2022/09/10 07:52:12;;;;;;;5.03;0.77;;;;;;;;;;4787667;30;20034;-65
2022/09/10 07:54:38;;;;;;;5.38;1.50;;;;;;;;;;4787218;30;20041;-65
2022/09/10 07:57:05;;;;;;;5.57;1.10;;;;;;;;;;4786910;30;20507;-65
2022/09/10 07:59:31;;;;;;;3.22;1.15;;;;;;;;;;4786981;30;20042;-65
2022/09/10 08:01:58;;;;;;;4.25;1.08;;;;;;;;;;4787180;30;20028;-65
2022/09/10 08:04:25;;;;;;;3.17;1.20;;;;;;;;;;4786763;29;20045;-65
2022/09/10 08:06:51;;;;;;;3.78;1.17;;;;;;;;;;4787169;30;20031;-65
2022/09/10 08:09:21;;;;;;;6.38;1.23;;;;;;;;;;4787182;30;20489;-65
2022/09/10 08:11:47;;;;;;;3.88;0.93;;;;;;;;;;4786678;30;20528;-65
2022/09/10 08:14:14;;;;;;;2.67;1.13;;;;;;;;;;4786887;30;20031;-65
2022/09/10 08:16:40;;;;;;;4.97;1.20;;;;;;;;;;4787391;30;20035;-65
2022/09/10 08:19:07;;;;;;;5.10;1.15;;;;;;;;;;4785547;29;20039;-65
2022/09/10 08:21:33;;;;;;;3.42;1.40;;;;;;;;;;4787016;30;20038;-65
2022/09/10 08:23:59;;;;;;;7.10;1.00;;;;;;;;;;4787173;30;20027;-65
2022/09/10 08:26:26;;;;;;;3.80;0.90;;;;;;;;;;4786683;30;20037;-65
2022/09/10 08:28:54;;;;;;;4.57;1.35;;;;;;;;;;4787097;29;20031;-65
2022/09/10 08:31:21;;;;;;;6.70;1.23;;;;;;;;;;4786842;30;20092;-65
2022/09/10 08:33:51;;;;;;;3.72;1.38;;;;;;;;;;4786883;30;20038;-66
2022/09/10 08:36:18;;;;;;;3.70;1.08;;;;;;;;;;4786805;30;20047;-65
2022/09/10 08:38:45;;;;;;;3.45;1.20;;;;;;;;;;4786752;29;20030;-65
2022/09/10 08:41:16;;;;;;;5.57;1.20;;;;;;;;;;4788786;29;20031;-65
2022/09/10 08:43:52;;;;;;;4.22;1.27;;;;;;;;;;4790338;30;20035;-65
2022/09/10 08:46:21;;;;;;;7.20;1.50;;;;;;;;;;4790402;29;20031;-65
2022/09/10 08:48:50;;;;;;;3.15;1.23;;;;;;;;;;4790406;29;20485;-65
2022/09/10 08:51:22;;;;;;;4.38;1.10;;;;;;;;;;4790374;29;20042;-66
2022/09/10 08:53:55;;;;;;;3.00;1.23;;;;;;;;;;4789765;30;20027;-65
2022/09/10 08:56:22;;;;;;;2.67;1.15;;;;;;;;;;4790095;30;20039;-65
2022/09/10 08:58:51;;;;;;;6.03;1.20;;;;;;;;;;4790187;30;20032;-66
2022/09/10 09:01:26;;;;;;;3.90;1.30;;;;;;;;;;4790252;29;20053;-65
2022/09/10 09:03:56;;;;;;;5.50;1.27;;;;;;;;;;4790414;30;20019;-65
2022/09/10 09:06:23;;;;;;;;;;;;;;;;;;4790269;29;20115;-66
2022/09/10 09:08:51;;;;;;;3.10;1.02;;;;;;;;;;4789771;30;20367;-65
2022/09/10 09:11:18;;;;;;;4.35;1.20;;;;;;;;;;4790040;30;20043;-66
2022/09/10 09:13:52;;;;;;;3.88;1.33;;;;;;;;;;4789926;29;20049;-65
2022/09/10 09:16:19;;;;;;;4.68;1.10;;;;;;;;;;4789824;30;20043;-66
2022/09/10 09:18:51;;;;;;;3.15;1.00;;;;;;;;;;4790075;29;20027;-65
2022/09/10 09:21:24;;;;;;;5.80;1.27;;;;;;;;;;4789811;30;20027;-65
2022/09/10 09:23:54;;;;;;;3.20;1.00;;;;;;;;;;4789631;29;20045;-66
2022/09/10 09:26:23;;;;;;;5.13;1.40;;;;;;;;;;4789823;29;20033;-65
2022/09/10 09:29:14;;;;;;;3.15;0.95;;;;;;;;;;4789973;29;20035;-65
2022/09/10 09:31:42;;;;;;;4.53;1.25;;;;;;;;;;4789580;30;20027;-65
2022/09/10 09:34:27;;;;;;;3.17;0.98;;;;;;;;;;4789566;30;20027;-65
2022/09/10 09:36:54;;;;;;;3.47;1.10;;;;;;;;;;4789448;30;20023;-65
2022/09/10 09:39:23;;;;;;;3.88;1.10;;;;;;;;;;4789083;30;20035;-65
2022/09/10 09:41:54;;;;;;;4.95;1.10;;;;;;;;;;4789287;30;20390;-65
2022/09/10 09:44:37;;;;;;;2.80;0.88;;;;;;;;;;4789507;30;20026;-65
2022/09/10 09:47:04;;;;;;;7.65;0.93;;;;;;;;;;4789271;30;20027;-66
2022/09/10 09:49:30;;;;;;;3.83;0.98;;;;;;;;;;4788334;30;20035;-65
2022/09/10 09:51:57;;;;;;;4.30;1.08;;;;;;;;;;4788371;29;20031;-65
2022/09/10 09:54:27;;;;;;;5.80;1.20;;;;;;;;;;4789261;29;20032;-65
2022/09/10 09:56:54;;;;;;;3.30;1.08;;;;;;;;;;4789170;29;20033;-65
2022/09/10 09:59:24;;;;;;;3.15;1.00;;;;;;;;;;4789118;30;20080;-65
2022/09/10 10:01:50;;;;;;;7.28;1.02;;;;;;;;;;4789450;30;20037;-65
2022/09/10 10:04:22;;;;;;;2.90;1.00;;;;;;;;;;4787518;29;20043;-65
2022/09/10 10:06:59;;;;;;;5.70;1.10;;;;;;;;;;4789023;30;20039;-65
2022/09/10 10:09:25;;;;;;;5.47;0.90;;;;;;;;;;4788882;30;20034;-66
2022/09/10 10:11:56;;;;;;;5.75;0.90;;;;;;;;;;4788954;30;20514;-65
2022/09/10 10:14:34;;;;;;;5.20;1.23;;;;;;;;;;4788768;29;20051;-65
2022/09/10 10:17:00;;;;;;;2.20;0.95;;;;;;;;;;4789160;30;20041;-65
2022/09/10 10:19:28;;;;;;;4.80;0.90;;;;;;;;;;4788665;30;20394;-66
2022/09/10 10:21:54;;;;;;;3.50;1.00;;;;;;;;;;4788627;30;20111;-65
2022/09/10 10:24:32;;;;;;;3.10;1.00;;;;;;;;;;4788628;30;20062;-65
2022/09/10 10:26:59;;;;;;;4.50;0.88;;;;;;;;;;4788584;29;20035;-65
2022/09/10 10:29:26;;;;;;;3.38;0.82;;;;;;;;;;4787478;29;20103;-65
2022/09/10 10:31:54;;;;;;;3.55;0.73;;;;;;;;;;4788586;30;20498;-65
2022/09/10 10:34:31;;;;;;;6.80;0.95;;;;;;;;;;4788720;29;20035;-65
2022/09/10 10:37:16;;;;;;;3.35;0.88;;;;;;;;;;4788359;29;20028;-65
2022/09/10 10:40:01;;;;;;;5.65;1.00;;;;;;;;;;4788349;30;20027;-65
2022/09/10 10:42:30;;;;;;;2.05;0.63;;;;;;;;;;4788431;30;20393;-65
2022/09/10 10:45:09;;;;;;;1.92;0.63;;;;;;;;;;4788468;30;20031;-65
2022/09/10 10:47:35;;;;;;;2.45;0.77;;;;;;;;;;4788276;30;20041;-65
2022/09/10 10:50:28;;;;;;;2.58;0.70;;;;;;;;;;4788104;29;20600;-65
2022/09/10 10:53:14;;;;;;;2.28;0.60;;;;;;;;;;4788736;29;20036;-65
2022/09/10 10:55:54;;;;;;;1.48;0.68;;;;;;;;;;4788050;30;20029;-65
2022/09/10 10:58:27;;;;;;;3.85;0.95;;;;;;;;;;4788188;29;20027;-65
2022/09/10 11:01:14;;;;;;;5.53;0.90;;;;;;;;;;4787986;29;20035;-65
2022/09/10 11:03:55;;;;;;;4.10;1.00;;;;;;;;;;4786585;29;20047;-65
2022/09/10 11:06:23;;;;;;;2.13;0.63;;;;;;;;;;4787766;29;20027;-65
2022/09/10 11:08:49;;;;;;;4.72;1.40;;;;;;;;;;4787937;30;20498;-65
2022/09/10 11:11:16;;;;;;;4.97;1.00;;;;;;;;;;4787853;29;20395;-65
2022/09/10 11:13:45;;;;;;;3.80;0.88;;;;;;;;;;4788061;29;20046;-65
2022/09/10 11:16:15;;;;;;;1.08;0.52;;;;;;;;;;4787909;30;20413;-65
2022/09/10 11:18:44;;;;;;;2.50;0.73;;;;;;;;;;4788061;29;20034;-65
2022/09/10 11:21:20;;;;;;;5.13;1.00;;;;;;;;;;4787868;30;20400;-65
2022/09/10 11:23:51;;;;;;;2.50;0.75;;;;;;;;;;4787623;30;20505;-65
2022/09/10 11:26:23;;;;;;;2.42;0.90;;;;;;;;;;4786451;30;20035;-65
2022/09/10 11:28:59;;;;;;;2.42;1.05;;;;;;;;;;4787706;29;20375;-65
2022/09/10 11:31:31;;;;;;;2.25;0.65;;;;;;;;;;4787642;29;20042;-65
2022/09/10 11:34:02;;;;;;;2.78;0.82;;;;;;;;;;4787538;30;20027;-65
2022/09/10 11:36:31;;;;;;;3.55;0.88;;;;;;;;;;4787619;30;20050;-65
2022/09/10 11:39:07;;;;;;;2.78;0.60;;;;;;;;;;4786145;29;20033;-65
2022/09/10 11:41:35;;;;;;;3.70;0.70;;;;;;;;;;4787801;30;20031;-65
2022/09/10 11:44:20;;;;;;;3.88;1.00;;;;;;;;;;4787607;29;20039;-65
2022/09/10 11:46:56;;;;;;;2.03;0.60;;;;;;;;;;4787732;30;20031;-65
2022/09/10 11:49:25;;;;;;;3.35;0.57;;;;;;;;;;4787146;30;20516;-65
2022/09/10 11:51:51;;;;;;;1.40;0.50;;;;;;;;;;4786189;30;20554;-65
2022/09/10 11:54:22;;;;;;;4.45;0.93;;;;;;;;;;4787539;30;20034;-65
2022/09/10 11:56:58;;;;;;;2.20;0.65;;;;;;;;;;4787313;30;20042;-65
2022/09/10 11:59:43;;;;;;;3.70;0.60;;;;;;;;;;4787053;30;20091;-65
2022/09/10 12:02:25;;;;;;;1.88;0.80;;;;;;;;;;4785977;30;20033;-65
2022/09/10 12:04:54;;;;;;;2.55;0.70;;;;;;;;;;4787012;29;20027;-65
2022/09/10 12:07:29;;;;;;;1.75;0.68;;;;;;;;;;4787216;30;20035;-65
2022/09/10 12:09:56;;;;;;;1.58;0.75;;;;;;;;;;4787159;30;20047;-65
2022/09/10 12:12:27;;;;;;;5.10;1.23;;;;;;;;;;4787116;30;20051;-65
2022/09/10 12:14:53;;;;;;;2.92;0.90;;;;;;;;;;4785727;30;20035;-65
2022/09/10 12:17:31;;;;;;;3.38;0.70;;;;;;;;;;4787199;30;20035;-65
2022/09/10 12:19:59;;;;;;;3.08;0.80;;;;;;;;;;4787045;30;20045;-65
2022/09/10 12:22:30;;;;;;;1.98;0.60;;;;;;;;;;4787051;30;20043;-66
2022/09/10 12:25:01;;;;;;;2.80;0.90;;;;;;;;;;4787224;30;20034;-66
2022/09/10 12:27:43;;;;;;;3.45;0.80;;;;;;;;;;4786919;29;20430;-66
2022/09/10 12:30:30;;;;;;;1.45;0.77;;;;;;;;;;4786981;29;20024;-66
2022/09/10 12:32:59;;;;;;;1.67;0.90;;;;;;;;;;4769686;30;20039;-66
2022/09/10 12:35:34;;;;;;;2.47;0.90;;;;;;;;;;4784860;30;20144;-66
2022/09/10 12:38:18;;;;;;;1.48;0.82;;;;;;;;;;4784889;30;20405;-66
2022/09/10 12:40:48;;;;;;;1.75;0.90;;;;;;;;;;4784655;30;20042;-65
2022/09/10 12:43:37;;;;;;;3.47;1.05;;;;;;;;;;4784880;30;20030;-66
2022/09/10 12:46:04;;;;;;;5.93;1.00;;;;;;;;;;4731246;30;20811;-66
2022/09/10 12:48:33;;;;;;;2.13;0.90;;;;;;;;;;4731459;30;20055;-66
2022/09/10 12:51:03;;;;;;;2.38;1.00;;;;;;;;;;4731312;30;20598;-66
2022/09/10 12:53:30;;;;;;;1.33;0.80;;;;;;;;;;4731395;30;20036;-66
2022/09/10 12:56:13;;;;;;;2.03;0.90;;;;;;;;;;4731303;30;20043;-65
2022/09/10 12:58:59;;;;;;;2.90;0.80;;;;;;;;;;4731537;30;20517;-66
2022/09/10 13:01:25;;;;;;;2.80;1.05;;;;;;;;;;4730990;30;20089;-66
2022/09/10 13:03:54;;;;;;;1.30;0.80;;;;;;;;;;4731552;30;20090;-66
2022/09/10 13:06:33;;;;;;;1.83;1.00;;;;;;;;;;4731123;30;20182;-66
2022/09/10 13:08:59;;;;;;;2.53;1.20;;;;;;;;;;4718180;30;20036;-66
2022/09/10 13:11:27;;;;;;;1.23;0.80;;;;;;;;;;4748699;30;20066;-66
2022/09/10 13:13:56;;;;;;;2.40;0.80;;;;;;;;;;4748886;30;20032;-66
2022/09/10 13:16:28;;;;;;;1.60;0.80;;;;;;;;;;4748361;30;20058;-66
2022/09/10 13:19:18;;;;;;;3.95;0.93;;;;;;;;;;4748795;30;20133;-66
2022/09/10 13:21:45;;;;;;;1.25;0.85;;;;;;;;;;4713523;30;20464;-66
2022/09/10 13:24:30;;;;;;;1.60;1.08;;;;;;;;;;4730901;30;20065;-66
2022/09/10 13:27:22;;;;;;;1.65;0.73;;;;;;;;;;4731328;30;20049;-66
2022/09/10 13:30:07;;;;;;;1.58;0.80;;;;;;;;;;4699159;30;20046;-66
2022/09/10 13:32:51;;;;;;;2.42;0.90;;;;;;;;;;4699469;30;20053;-66
2022/09/10 13:35:21;;;;;;;3.22;0.82;;;;;;;;;;4699439;30;20077;-64
2022/09/10 13:38:05;;;;;;;2.60;0.93;;;;;;;;;;4699390;30;20047;-65
2022/09/10 13:40:38;;;;;;;1.88;0.82;;;;;;;;;;4699234;30;20041;-66
2022/09/10 13:43:10;;;;;;;1.70;0.70;;;;;;;;;;4699148;30;20447;-66
2022/09/10 13:45:57;;;;;;;3.10;0.90;;;;;;;;;;4698924;30;20045;-65
2022/09/10 13:48:26;;;;;;;1.38;0.77;;;;;;;;;;4699215;30;20050;-66
2022/09/10 13:50:55;;;;;;;1.25;0.80;;;;;;;;;;4699111;30;20237;-66
2022/09/10 13:53:23;;;;;;;2.40;0.95;;;;;;;;;;4699260;30;20079;-66
2022/09/10 13:56:01;;;;;;;1.35;0.75;;;;;;;;;;4698949;30;20045;-66
2022/09/10 13:58:31;;;;;;;1.70;0.80;;;;;;;;;;4719147;30;20092;-66
2022/09/10 14:01:03;;;;;;;1.95;0.90;;;;;;;;;;4751520;30;20506;-66
2022/09/10 14:03:31;;;;;;;1.50;0.73;;;;;;;;;;4751513;30;20442;-65
2022/09/10 14:06:00;;;;;;;3.53;1.10;;;;;;;;;;4757428;30;20054;-66
2022/09/10 14:08:26;;;;;;;1.20;0.80;;;;;;;;;;4771396;30;20026;-65
2022/09/10 14:11:02;;;;;;;1.60;0.77;;;;;;;;;;4770915;30;20044;-65
2022/09/10 14:13:35;;;;;;;0.88;0.82;;;;;;;;;;4770708;30;20034;-65
2022/09/10 14:16:03;;;;;;;1.40;0.70;;;;;;;;;;4770927;30;20409;-65
2022/09/10 14:18:36;;;;;;;1.83;0.70;;;;;;;;;;4771123;30;20032;-65
2022/09/10 14:21:02;;;;;;;2.30;0.88;;;;;;;;;;4770894;30;20034;-65
2022/09/10 14:23:29;;;;;;;3.10;1.45;;;;;;;;;;4770807;30;20028;-65
2022/09/10 14:26:16;;;;;;;8.75;0.82;;;;;;;;;;4771173;30;20054;-65
2022/09/10 14:28:54;;;;;;;3.28;0.70;;;;;;;;;;4770539;30;20497;-66
2022/09/10 14:31:23;;;;;;;1.75;0.77;;;;;;;;;;4770885;30;20030;-66
2022/09/10 14:33:49;;;;;;;2.10;0.70;;;;;;;;;;4770790;30;20031;-65
2022/09/10 14:36:21;;;;;;;1.45;0.77;;;;;;;;;;4770663;30;20417;-66
2022/09/10 14:38:59;;;;;;;1.45;0.60;;;;;;;;;;4770425;30;20104;-65
2022/09/10 14:41:27;;;;;;;0.80;0.70;;;;;;;;;;4770520;30;20039;-65
2022/09/10 14:44:13;;;;;;;1.40;0.68;;;;;;;;;;4770524;30;20032;-65
2022/09/10 14:47:05;;;;;;;1.30;0.60;;;;;;;;;;4770690;30;20036;-65
2022/09/10 14:49:33;;;;;;;1.95;0.63;;;;;;;;;;4770117;30;20043;-65
2022/09/10 14:52:00;;;;;;;2.53;0.50;;;;;;;;;;4770681;30;20039;-65
2022/09/10 14:54:27;;;;;;;1.27;0.75;;;;;;;;;;4770283;30;20028;-65
2022/09/10 14:56:55;;;;;;;1.95;0.80;;;;;;;;;;4770015;30;20047;-65
2022/09/10 14:59:32;;;;;;;2.40;0.70;;;;;;;;;;4769212;30;20020;-65